Terminal Aerodrome Forecast
Issued by NWS Shreveport, LA

Home | Current Version | Previous Version | Text Only | Print | Product List | Glossary On
Versions: 1 2 3 4 5 6 7 8 9 10 11 12 13 14 15 16 17 18
000
FTUS44 KSHV 181123
TAFELD
TAF
KELD 181123Z 1812/1912 19012KT P6SM OVC020
     FM181400 21015G22KT P6SM BKN020
     FM182000 28017G24KT P6SM VCSH SCT020 BKN050
     FM190000 31014G22KT P6SM SKC
     FM190300 31006KT P6SM SKC=

USA.gov is the U.S. government's official web portal to all federal, state and local government web resources and services.